Time;durP1;ratioP1;P1;durP2;ratioP2;P2;SDS_P1;SDS_P2;PMS_P1;PMS_P2;Temp;Humidity;BMP_temperature;BMP_pressure;BME280_temperature;BME280_humidity;BME280_pressure;Samples;Min_cycle;Max_cycle;Signal;HPM_P1;HPM_P2
2023/12/12 00:01:11;;;;;;;11.00;2.35;;;;;;;;;;5054619;28;20558;-78
2023/12/12 00:03:38;;;;;;;8.75;2.42;;;;;;;;;;5088655;28;20056;-78
2023/12/12 00:06:06;;;;;;;7.25;2.17;;;;;;;;;;5088787;28;20087;-79
2023/12/12 00:08:33;;;;;;;8.25;2.33;;;;;;;;;;5069465;28;20057;-79
2023/12/12 00:11:00;;;;;;;9.55;2.97;;;;;;;;;;5071238;28;20056;-79
2023/12/12 00:13:26;;;;;;;7.85;2.13;;;;;;;;;;5070750;28;20103;-78
2023/12/12 00:15:53;;;;;;;8.45;2.17;;;;;;;;;;5074376;28;20410;-78
2023/12/12 00:18:20;;;;;;;5.10;1.90;;;;;;;;;;5076893;28;20087;-78
2023/12/12 00:20:47;;;;;;;4.90;1.77;;;;;;;;;;5075011;28;20104;-80
2023/12/12 00:23:14;;;;;;;5.40;2.08;;;;;;;;;;5099687;28;20106;-79
2023/12/12 00:25:41;;;;;;;6.65;1.90;;;;;;;;;;5084881;28;20057;-79
2023/12/12 00:28:07;;;;;;;7.47;2.35;;;;;;;;;;5065338;28;20075;-79
2023/12/12 00:30:34;;;;;;;7.07;1.77;;;;;;;;;;5082955;28;20053;-79
2023/12/12 00:33:01;;;;;;;6.65;1.88;;;;;;;;;;5092917;28;20052;-79
2023/12/12 00:35:28;;;;;;;8.10;2.30;;;;;;;;;;5092017;28;20068;-79
2023/12/12 00:37:54;;;;;;;8.13;2.00;;;;;;;;;;5092258;28;20052;-79
2023/12/12 00:40:21;;;;;;;6.63;1.98;;;;;;;;;;5094485;28;20545;-78
2023/12/12 00:42:48;;;;;;;5.80;2.38;;;;;;;;;;5059702;28;20102;-79
2023/12/12 00:45:15;;;;;;;7.65;3.03;;;;;;;;;;5063601;28;20084;-78
2023/12/12 00:47:42;;;;;;;6.55;2.15;;;;;;;;;;5047615;28;20071;-78
2023/12/12 00:50:09;;;;;;;4.88;1.63;;;;;;;;;;5088559;28;20083;-79
2023/12/12 00:52:36;;;;;;;4.97;1.75;;;;;;;;;;5096888;28;20048;-79
2023/12/12 00:55:03;;;;;;;5.13;1.73;;;;;;;;;;5080431;28;20060;-78
2023/12/12 00:57:30;;;;;;;4.53;1.70;;;;;;;;;;5097896;28;20052;-78
2023/12/12 00:59:57;;;;;;;5.75;1.52;;;;;;;;;;5061947;28;20056;-78
2023/12/12 01:02:24;;;;;;;6.90;2.50;;;;;;;;;;5079711;28;20109;-78
2023/12/12 01:04:51;;;;;;;4.80;2.55;;;;;;;;;;5063514;28;20457;-78
2023/12/12 01:07:18;;;;;;;5.88;1.98;;;;;;;;;;5060820;28;20060;-78
2023/12/12 01:09:45;;;;;;;5.43;1.67;;;;;;;;;;5077398;28;20045;-79
2023/12/12 01:12:12;;;;;;;4.88;1.52;;;;;;;;;;5061749;28;20075;-79
2023/12/12 01:14:39;;;;;;;5.70;1.95;;;;;;;;;;5064213;28;20056;-78
2023/12/12 01:17:06;;;;;;;7.57;2.08;;;;;;;;;;5047718;28;20059;-78
2023/12/12 01:19:33;;;;;;;7.13;1.98;;;;;;;;;;5062415;28;20549;-79
2023/12/12 01:21:59;;;;;;;7.30;1.58;;;;;;;;;;5072023;28;20132;-78
2023/12/12 01:24:26;;;;;;;8.00;1.98;;;;;;;;;;5088029;28;20132;-79
2023/12/12 01:26:53;;;;;;;8.88;2.05;;;;;;;;;;5081320;28;20506;-79
2023/12/12 01:29:20;;;;;;;3.58;1.27;;;;;;;;;;5098924;28;20101;-78
2023/12/12 01:31:47;;;;;;;5.80;1.63;;;;;;;;;;5062183;28;20049;-79
2023/12/12 01:34:13;;;;;;;5.45;1.70;;;;;;;;;;5056670;28;20044;-79
2023/12/12 01:36:40;;;;;;;3.72;1.50;;;;;;;;;;5078848;28;20049;-78
2023/12/12 01:39:07;;;;;;;4.43;1.45;;;;;;;;;;5081586;28;20114;-79
2023/12/12 01:41:34;;;;;;;8.13;1.88;;;;;;;;;;5061327;28;20053;-79
2023/12/12 01:44:00;;;;;;;8.23;1.80;;;;;;;;;;5063661;28;20060;-80
2023/12/12 01:46:27;;;;;;;5.28;1.50;;;;;;;;;;5065387;28;20057;-79
2023/12/12 01:48:54;;;;;;;3.83;1.42;;;;;;;;;;5066866;28;20410;-79
2023/12/12 01:51:21;;;;;;;6.45;2.25;;;;;;;;;;5047251;28;20067;-78
2023/12/12 01:53:48;;;;;;;4.90;1.77;;;;;;;;;;5043649;28;20061;-79
2023/12/12 01:56:15;;;;;;;3.22;1.23;;;;;;;;;;5082241;28;20049;-79
2023/12/12 01:58:44;;;;;;;6.15;1.25;;;;;;;;;;5065628;28;20054;-79
2023/12/12 02:01:10;;;;;;;4.70;1.73;;;;;;;;;;5049431;28;20066;-80
2023/12/12 02:03:38;;;;;;;7.05;1.20;;;;;;;;;;5086817;28;20065;-79
2023/12/12 02:06:05;;;;;;;3.50;1.77;;;;;;;;;;5084387;28;20056;-79
2023/12/12 02:08:32;;;;;;;3.83;1.92;;;;;;;;;;5071562;28;20057;-79
2023/12/12 02:10:59;;;;;;;6.55;2.17;;;;;;;;;;5056185;28;20048;-79
2023/12/12 02:13:25;;;;;;;3.67;1.30;;;;;;;;;;5064950;28;20048;-79
2023/12/12 02:15:52;;;;;;;7.05;1.83;;;;;;;;;;5084715;28;20076;-79
2023/12/12 02:18:19;;;;;;;6.68;1.45;;;;;;;;;;5067183;28;20053;-79
2023/12/12 02:20:46;;;;;;;5.63;1.80;;;;;;;;;;5063370;28;20057;-79
2023/12/12 02:23:13;;;;;;;7.45;1.80;;;;;;;;;;5076187;28;20430;-78
2023/12/12 02:25:40;;;;;;;5.72;1.70;;;;;;;;;;5079086;28;20053;-79
2023/12/12 02:28:08;;;;;;;4.53;1.40;;;;;;;;;;5069637;28;20104;-79
2023/12/12 02:30:35;;;;;;;4.75;1.27;;;;;;;;;;5066733;28;20084;-79
2023/12/12 02:33:02;;;;;;;5.78;2.00;;;;;;;;;;5066570;28;20057;-79
2023/12/12 02:35:31;;;;;;;4.47;1.42;;;;;;;;;;5048430;28;20144;-78
2023/12/12 02:37:58;;;;;;;5.70;1.48;;;;;;;;;;5063153;28;20601;-79
2023/12/12 02:40:24;;;;;;;5.70;1.60;;;;;;;;;;5064752;28;20059;-78
2023/12/12 02:42:52;;;;;;;3.90;1.40;;;;;;;;;;5062823;28;20561;-78
2023/12/12 02:45:19;;;;;;;4.85;1.45;;;;;;;;;;5068827;28;20140;-78
2023/12/12 02:47:46;;;;;;;4.97;1.13;;;;;;;;;;5102535;28;20456;-78
2023/12/12 02:50:12;;;;;;;2.78;1.27;;;;;;;;;;5067688;28;20075;-78
2023/12/12 02:52:39;;;;;;;2.50;1.50;;;;;;;;;;5077913;28;20542;-78
2023/12/12 02:55:07;;;;;;;5.80;2.30;;;;;;;;;;5051259;28;20087;-78
2023/12/12 02:57:34;;;;;;;7.40;2.13;;;;;;;;;;5065485;28;20140;-79
2023/12/12 03:00:01;;;;;;;3.78;1.50;;;;;;;;;;5081030;28;20053;-79
2023/12/12 03:02:28;;;;;;;4.72;1.48;;;;;;;;;;5056442;28;20054;-79
2023/12/12 03:04:55;;;;;;;2.58;1.10;;;;;;;;;;5082838;28;20078;-78
2023/12/12 03:07:22;;;;;;;9.32;2.50;;;;;;;;;;5084143;28;20048;-78
2023/12/12 03:09:49;;;;;;;3.72;1.63;;;;;;;;;;5099859;28;20056;-80
2023/12/12 03:12:16;;;;;;;3.83;1.08;;;;;;;;;;5083840;28;20577;-79
2023/12/12 03:14:43;;;;;;;4.93;1.70;;;;;;;;;;5106044;28;20056;-79
2023/12/12 03:17:10;;;;;;;7.10;1.58;;;;;;;;;;5112605;28;20057;-78
2023/12/12 03:19:36;;;;;;;3.70;1.45;;;;;;;;;;5103008;28;20080;-78
2023/12/12 03:22:03;;;;;;;4.22;1.58;;;;;;;;;;5085633;28;20063;-79
2023/12/12 03:24:30;;;;;;;7.35;2.60;;;;;;;;;;5049846;28;20045;-78
2023/12/12 03:26:58;;;;;;;11.80;2.03;;;;;;;;;;5075174;28;20044;-78
2023/12/12 03:29:24;;;;;;;8.10;2.50;;;;;;;;;;5072111;28;20041;-78
2023/12/12 03:31:51;;;;;;;4.80;1.65;;;;;;;;;;5052060;28;20725;-78
2023/12/12 03:34:18;;;;;;;3.33;1.63;;;;;;;;;;5088452;28;20093;-79
2023/12/12 03:36:45;;;;;;;5.10;1.90;;;;;;;;;;5089369;28;20498;-78
2023/12/12 03:39:12;;;;;;;4.80;1.83;;;;;;;;;;5064800;28;20056;-79
2023/12/12 03:41:39;;;;;;;3.47;1.45;;;;;;;;;;5090364;28;20084;-78
2023/12/12 03:44:05;;;;;;;7.38;2.13;;;;;;;;;;5091048;28;20110;-78
2023/12/12 03:46:32;;;;;;;3.25;1.63;;;;;;;;;;5090961;28;20136;-79
2023/12/12 03:48:59;;;;;;;4.30;1.98;;;;;;;;;;5075599;28;20048;-78
2023/12/12 03:51:26;;;;;;;6.07;1.77;;;;;;;;;;5060795;28;20044;-79
2023/12/12 03:53:53;;;;;;;2.42;1.50;;;;;;;;;;5059692;28;20052;-78
2023/12/12 03:56:20;;;;;;;7.25;2.17;;;;;;;;;;5092334;28;20120;-79
2023/12/12 03:58:47;;;;;;;5.82;2.28;;;;;;;;;;5073563;28;20044;-78
2023/12/12 04:01:13;;;;;;;5.05;1.98;;;;;;;;;;5068673;28;20075;-78
2023/12/12 04:03:40;;;;;;;3.88;2.35;;;;;;;;;;5074755;28;20068;-79
2023/12/12 04:06:07;;;;;;;6.03;1.88;;;;;;;;;;5062267;28;20060;-80
2023/12/12 04:08:35;;;;;;;6.90;1.75;;;;;;;;;;5060317;28;20052;-80
2023/12/12 04:11:02;;;;;;;7.03;1.50;;;;;;;;;;5079358;28;20072;-79
2023/12/12 04:13:29;;;;;;;3.55;1.30;;;;;;;;;;5062967;28;20063;-80
2023/12/12 04:15:55;;;;;;;5.43;1.77;;;;;;;;;;5076765;28;20191;-81
2023/12/12 04:18:22;;;;;;;2.65;2.17;;;;;;;;;;5070524;28;20064;-81
2023/12/12 04:20:49;;;;;;;3.97;1.10;;;;;;;;;;5078768;28;20422;-81
2023/12/12 04:23:16;;;;;;;3.30;1.48;;;;;;;;;;5080256;28;20100;-80
2023/12/12 04:25:43;;;;;;;3.70;1.52;;;;;;;;;;5049805;28;20060;-80
2023/12/12 04:28:10;;;;;;;5.22;1.30;;;;;;;;;;5083222;28;20052;-81
2023/12/12 04:30:37;;;;;;;3.65;1.10;;;;;;;;;;5063113;28;20049;-81
2023/12/12 04:33:04;;;;;;;4.47;1.20;;;;;;;;;;5066995;28;20057;-81
2023/12/12 04:35:31;;;;;;;3.95;1.30;;;;;;;;;;5080075;28;20108;-81
2023/12/12 04:37:58;;;;;;;1.88;0.90;;;;;;;;;;5067950;28;20076;-81
2023/12/12 04:40:28;;;;;;;2.83;1.23;;;;;;;;;;5046875;28;20053;-81
2023/12/12 04:42:55;;;;;;;3.50;1.15;;;;;;;;;;5047131;28;20064;-81
2023/12/12 04:45:22;;;;;;;2.92;1.25;;;;;;;;;;5100942;28;20053;-79
2023/12/12 04:47:49;;;;;;;3.40;0.90;;;;;;;;;;5080481;28;20056;-80
2023/12/12 04:50:16;;;;;;;3.90;1.13;;;;;;;;;;5065031;28;20057;-79
2023/12/12 04:52:43;;;;;;;5.30;1.35;;;;;;;;;;5077638;28;20061;-80
2023/12/12 04:55:10;;;;;;;1.10;0.70;;;;;;;;;;5085008;28;20074;-79
2023/12/12 04:57:37;;;;;;;3.90;1.27;;;;;;;;;;5103348;28;20055;-79
2023/12/12 05:00:10;;;;;;;4.25;0.90;;;;;;;;;;5101483;28;20056;-79
2023/12/12 05:02:41;;;;;;;2.58;1.45;;;;;;;;;;5055471;28;20047;-79
2023/12/12 05:05:08;;;;;;;2.75;1.00;;;;;;;;;;5047226;28;20159;-82
2023/12/12 05:07:35;;;;;;;12.18;2.00;;;;;;;;;;5084879;28;20075;-81
2023/12/12 05:10:02;;;;;;;2.22;1.60;;;;;;;;;;5062291;28;20106;-81
2023/12/12 05:12:29;;;;;;;5.22;1.80;;;;;;;;;;5063300;28;20053;-80
2023/12/12 05:15:01;;;;;;;4.63;1.67;;;;;;;;;;5051534;28;20132;-80
2023/12/12 05:17:27;;;;;;;3.75;1.52;;;;;;;;;;5047124;28;20080;-81
2023/12/12 05:19:55;;;;;;;3.28;1.40;;;;;;;;;;5078148;28;20053;-81
2023/12/12 05:22:22;;;;;;;6.93;1.60;;;;;;;;;;5063072;28;20053;-81
2023/12/12 05:24:49;;;;;;;4.45;1.65;;;;;;;;;;5081769;28;20060;-81
2023/12/12 05:27:16;;;;;;;7.18;2.25;;;;;;;;;;5088097;28;20049;-82
2023/12/12 05:29:42;;;;;;;3.75;1.95;;;;;;;;;;5067626;28;20089;-82
2023/12/12 05:32:09;;;;;;;6.35;2.42;;;;;;;;;;5068784;28;20075;-83
2023/12/12 05:34:36;;;;;;;4.50;1.65;;;;;;;;;;5070804;28;20071;-82
2023/12/12 05:37:03;;;;;;;3.58;2.33;;;;;;;;;;5062743;28;20087;-82
2023/12/12 05:39:30;;;;;;;5.30;1.40;;;;;;;;;;5066819;28;20045;-82
2023/12/12 05:41:57;;;;;;;4.32;1.70;;;;;;;;;;5098919;28;20061;-83
2023/12/12 05:44:25;;;;;;;5.78;1.55;;;;;;;;;;5081805;28;20044;-83
2023/12/12 05:46:52;;;;;;;3.75;1.67;;;;;;;;;;5047700;28;20052;-82
2023/12/12 05:49:19;;;;;;;4.47;1.55;;;;;;;;;;5101281;28;20060;-81
2023/12/12 05:51:46;;;;;;;3.38;1.25;;;;;;;;;;5086476;28;20074;-80
2023/12/12 05:54:13;;;;;;;5.53;1.10;;;;;;;;;;5059802;28;20171;-78
2023/12/12 05:56:43;;;;;;;4.18;1.40;;;;;;;;;;5072658;28;20183;-80
2023/12/12 05:59:11;;;;;;;4.40;1.10;;;;;;;;;;5075723;28;20041;-80
2023/12/12 06:01:41;;;;;;;3.90;1.27;;;;;;;;;;5073102;28;20079;-77
2023/12/12 06:04:12;;;;;;;4.47;1.67;;;;;;;;;;5087258;28;20083;-82
2023/12/12 06:06:41;;;;;;;4.90;1.23;;;;;;;;;;5062064;28;20506;-79
2023/12/12 06:09:10;;;;;;;6.43;1.85;;;;;;;;;;5046790;28;20056;-79
2023/12/12 06:11:37;;;;;;;4.05;1.58;;;;;;;;;;5062025;28;20079;-78
2023/12/12 06:14:05;;;;;;;4.40;1.85;;;;;;;;;;5043582;28;20080;-78
2023/12/12 06:16:32;;;;;;;5.00;1.52;;;;;;;;;;5094160;28;20063;-78
2023/12/12 06:18:59;;;;;;;5.25;1.35;;;;;;;;;;5093181;28;20079;-78
2023/12/12 06:21:26;;;;;;;3.60;1.50;;;;;;;;;;5053286;28;20048;-78
2023/12/12 06:23:53;;;;;;;1.88;1.10;;;;;;;;;;5078137;28;20492;-79
2023/12/12 06:26:20;;;;;;;5.90;1.58;;;;;;;;;;5095726;28;20049;-78
2023/12/12 06:28:47;;;;;;;5.43;1.30;;;;;;;;;;5078450;28;20087;-78
2023/12/12 06:31:13;;;;;;;4.57;1.77;;;;;;;;;;5080056;28;20056;-78
2023/12/12 06:33:40;;;;;;;3.15;1.30;;;;;;;;;;5056228;28;20147;-78
2023/12/12 06:36:09;;;;;;;2.72;1.25;;;;;;;;;;5079068;28;20057;-80
2023/12/12 06:38:36;;;;;;;2.97;1.27;;;;;;;;;;5073697;28;20113;-80
2023/12/12 06:41:03;;;;;;;10.75;1.63;;;;;;;;;;5079415;28;20068;-78
2023/12/12 06:43:29;;;;;;;5.53;1.90;;;;;;;;;;5052854;28;20450;-80
2023/12/12 06:45:57;;;;;;;5.72;1.38;;;;;;;;;;5076207;28;20045;-81
2023/12/12 06:48:24;;;;;;;3.70;1.42;;;;;;;;;;5055765;28;20084;-82
2023/12/12 06:50:52;;;;;;;3.67;1.30;;;;;;;;;;5070853;28;20056;-79
2023/12/12 06:53:19;;;;;;;5.60;1.55;;;;;;;;;;5056915;28;20045;-79
2023/12/12 06:55:47;;;;;;;6.38;1.73;;;;;;;;;;5058065;28;20044;-80
2023/12/12 06:58:17;;;;;;;5.03;1.73;;;;;;;;;;5085667;28;20568;-82
2023/12/12 07:00:44;;;;;;;3.97;2.10;;;;;;;;;;5059930;28;20056;-80
2023/12/12 07:03:11;;;;;;;6.22;2.15;;;;;;;;;;5058296;28;20055;-80
2023/12/12 07:05:38;;;;;;;7.90;2.55;;;;;;;;;;5073079;28;20148;-87
2023/12/12 07:08:05;;;;;;;6.55;2.10;;;;;;;;;;5056377;28;20407;-79
2023/12/12 07:10:32;;;;;;;7.55;2.55;;;;;;;;;;5051697;28;20117;-79
2023/12/12 07:13:02;;;;;;;8.18;2.40;;;;;;;;;;5039559;28;20469;-77
2023/12/12 07:15:29;;;;;;;9.55;2.58;;;;;;;;;;5067242;28;20443;-78
2023/12/12 07:17:56;;;;;;;6.78;2.63;;;;;;;;;;5066453;28;20513;-77
2023/12/12 07:20:23;;;;;;;4.38;1.95;;;;;;;;;;5060323;28;20518;-78
2023/12/12 07:22:49;;;;;;;4.30;1.98;;;;;;;;;;5068901;28;20087;-77
2023/12/12 07:25:16;;;;;;;6.20;2.03;;;;;;;;;;5065223;28;20060;-77
2023/12/12 07:27:43;;;;;;;4.57;2.00;;;;;;;;;;5052587;28;20067;-77
2023/12/12 07:30:10;;;;;;;10.13;2.92;;;;;;;;;;5076780;28;20394;-80
2023/12/12 07:32:38;;;;;;;8.98;2.92;;;;;;;;;;5057029;28;20352;-80
2023/12/12 07:35:05;;;;;;;7.10;2.35;;;;;;;;;;5058195;28;20060;-80
2023/12/12 07:37:32;;;;;;;5.43;1.83;;;;;;;;;;5076176;28;20045;-79
2023/12/12 07:39:59;;;;;;;3.50;1.40;;;;;;;;;;5064352;28;20044;-80
2023/12/12 07:42:28;;;;;;;4.50;2.10;;;;;;;;;;5086268;28;20052;-79
2023/12/12 07:44:57;;;;;;;7.88;2.70;;;;;;;;;;5056158;28;20131;-79
2023/12/12 07:47:24;;;;;;;6.68;2.40;;;;;;;;;;5036438;28;20082;-79
2023/12/12 07:50:07;;;;;;;5.68;2.05;;;;;;;;;;5080198;28;20059;-79
2023/12/12 07:52:33;;;;;;;5.55;1.88;;;;;;;;;;5055532;28;20090;-79
2023/12/12 07:55:00;;;;;;;9.23;2.25;;;;;;;;;;5054617;28;20079;-81
2023/12/12 07:57:27;;;;;;;4.10;1.83;;;;;;;;;;5068931;28;20068;-80
2023/12/12 07:59:54;;;;;;;6.43;1.95;;;;;;;;;;5071804;28;20065;-76
2023/12/12 08:02:21;;;;;;;4.00;1.77;;;;;;;;;;5066141;28;20131;-77
2023/12/12 08:04:48;;;;;;;3.20;1.70;;;;;;;;;;5064720;28;20056;-78
2023/12/12 08:07:16;;;;;;;3.35;1.88;;;;;;;;;;5047850;28;20059;-77
2023/12/12 08:09:43;;;;;;;5.82;1.70;;;;;;;;;;5054729;28;20048;-77
2023/12/12 08:12:10;;;;;;;5.60;1.83;;;;;;;;;;5052190;28;20135;-77
2023/12/12 08:14:37;;;;;;;9.30;2.13;;;;;;;;;;5085674;28;20080;-77
2023/12/12 08:17:08;;;;;;;2.88;1.85;;;;;;;;;;5095490;28;20055;-82
2023/12/12 08:19:35;;;;;;;2.97;1.95;;;;;;;;;;5063145;28;20494;-81
2023/12/12 08:22:02;;;;;;;4.25;1.75;;;;;;;;;;5065664;28;20052;-81
2023/12/12 08:24:29;;;;;;;8.15;2.13;;;;;;;;;;5077518;28;20056;-78
2023/12/12 08:26:56;;;;;;;3.50;1.98;;;;;;;;;;5066927;28;20057;-82
2023/12/12 08:29:23;;;;;;;5.80;1.80;;;;;;;;;;5034359;28;20084;-80
2023/12/12 08:31:50;;;;;;;10.77;2.88;;;;;;;;;;5061046;28;20114;-80
2023/12/12 08:34:18;;;;;;;6.25;2.00;;;;;;;;;;5040243;28;20058;-81
2023/12/12 08:36:45;;;;;;;4.18;2.17;;;;;;;;;;5066576;28;20048;-81
2023/12/12 08:39:13;;;;;;;6.63;2.50;;;;;;;;;;5050693;28;20123;-80
2023/12/12 08:41:50;;;;;;;;;;;;;;;;;;;;;
2023/12/12 08:44:20;;;;;;;2.97;2.40;;;;;;;;;;5074552;28;20118;-82
2023/12/12 08:46:47;;;;;;;3.22;1.63;;;;;;;;;;5072577;28;20092;-83
2023/12/12 08:49:15;;;;;;;4.63;1.88;;;;;;;;;;5085922;28;20048;-82
2023/12/12 08:51:42;;;;;;;4.25;1.90;;;;;;;;;;5074464;28;20550;-82
2023/12/12 08:54:09;;;;;;;3.13;1.42;;;;;;;;;;5065592;28;20064;-82
2023/12/12 08:56:38;;;;;;;3.00;1.60;;;;;;;;;;5069408;28;20048;-80
2023/12/12 08:59:08;;;;;;;5.50;1.80;;;;;;;;;;5057060;28;20087;-80
2023/12/12 09:01:35;;;;;;;2.53;1.58;;;;;;;;;;5069257;28;20049;-80
2023/12/12 09:04:02;;;;;;;3.42;1.48;;;;;;;;;;5083726;28;20075;-80
2023/12/12 09:06:31;;;;;;;4.60;1.65;;;;;;;;;;5060937;28;20044;-83
2023/12/12 09:08:58;;;;;;;5.55;2.67;;;;;;;;;;5048139;28;20052;-80
2023/12/12 09:11:26;;;;;;;6.38;3.25;;;;;;;;;;5075129;28;20057;-79
2023/12/12 09:13:53;;;;;;;4.97;2.40;;;;;;;;;;5054912;28;20895;-79
2023/12/12 09:16:20;;;;;;;4.75;2.25;;;;;;;;;;5085253;28;20045;-80
2023/12/12 09:18:47;;;;;;;6.97;2.67;;;;;;;;;;5064371;28;20049;-80
2023/12/12 09:21:14;;;;;;;7.47;2.70;;;;;;;;;;5055392;28;20052;-79
2023/12/12 09:23:41;;;;;;;5.15;2.17;;;;;;;;;;5073539;28;20084;-80
2023/12/12 09:26:14;;;;;;;3.30;1.92;;;;;;;;;;5068989;28;20080;-79
2023/12/12 09:28:42;;;;;;;5.15;2.58;;;;;;;;;;5073621;28;20049;-79
2023/12/12 09:31:09;;;;;;;9.52;2.03;;;;;;;;;;5038512;28;20088;-79
2023/12/12 09:33:37;;;;;;;3.80;1.90;;;;;;;;;;5069452;28;20516;-79
2023/12/12 09:36:06;;;;;;;5.50;2.38;;;;;;;;;;5052518;28;20063;-78
2023/12/12 09:38:33;;;;;;;5.05;2.42;;;;;;;;;;5055416;28;20053;-79
2023/12/12 09:41:01;;;;;;;6.88;2.50;;;;;;;;;;5067786;28;20114;-79
2023/12/12 09:43:27;;;;;;;8.43;2.95;;;;;;;;;;5052485;28;20052;-80
2023/12/12 09:45:57;;;;;;;9.02;4.10;;;;;;;;;;5071833;28;20088;-79
2023/12/12 09:48:24;;;;;;;5.20;2.85;;;;;;;;;;5038580;28;20053;-79
2023/12/12 09:50:54;;;;;;;7.88;3.47;;;;;;;;;;5040156;28;20521;-78
2023/12/12 09:53:21;;;;;;;5.15;2.63;;;;;;;;;;5033427;28;20091;-79
2023/12/12 09:55:48;;;;;;;6.78;2.28;;;;;;;;;;5067448;28;20411;-79
2023/12/12 09:58:15;;;;;;;4.60;2.33;;;;;;;;;;5067319;28;20498;-78
2023/12/12 10:00:42;;;;;;;5.63;2.50;;;;;;;;;;5065406;28;20413;-79
2023/12/12 10:03:12;;;;;;;3.25;2.58;;;;;;;;;;5040879;28;20560;-79
2023/12/12 10:05:39;;;;;;;5.25;2.70;;;;;;;;;;5049978;28;20056;-78
2023/12/12 10:08:06;;;;;;;5.20;2.47;;;;;;;;;;5051058;28;20075;-79
2023/12/12 10:10:43;;;;;;;6.10;2.50;;;;;;;;;;5065668;28;20106;-79
2023/12/12 10:13:10;;;;;;;5.40;3.45;;;;;;;;;;5050593;28;20067;-78
2023/12/12 10:15:38;;;;;;;8.65;2.72;;;;;;;;;;5067006;28;20048;-78
2023/12/12 10:18:04;;;;;;;5.88;2.65;;;;;;;;;;5074671;28;20060;-79
2023/12/12 10:20:32;;;;;;;4.05;2.75;;;;;;;;;;5051843;28;20071;-78
2023/12/12 10:23:00;;;;;;;4.38;2.30;;;;;;;;;;5074284;28;20130;-79
2023/12/12 10:25:31;;;;;;;6.65;2.55;;;;;;;;;;5048535;28;20056;-79
2023/12/12 10:27:58;;;;;;;3.65;2.30;;;;;;;;;;5055645;28;20078;-79
2023/12/12 10:30:26;;;;;;;4.72;2.67;;;;;;;;;;5069805;28;20060;-78
2023/12/12 10:32:54;;;;;;;6.65;2.60;;;;;;;;;;5065920;28;20067;-78
2023/12/12 10:35:22;;;;;;;5.25;2.72;;;;;;;;;;5043595;28;20048;-79
2023/12/12 10:37:50;;;;;;;4.65;2.42;;;;;;;;;;5060850;28;20063;-79
2023/12/12 10:40:18;;;;;;;4.10;2.38;;;;;;;;;;5052018;28;20079;-78
2023/12/12 10:42:45;;;;;;;6.88;2.45;;;;;;;;;;5088750;28;20059;-79
2023/12/12 10:45:13;;;;;;;5.18;2.40;;;;;;;;;;5064811;28;20114;-77
2023/12/12 10:47:42;;;;;;;4.65;2.40;;;;;;;;;;5084898;28;20078;-77
2023/12/12 10:50:13;;;;;;;3.22;1.75;;;;;;;;;;5076941;28;20061;-79
2023/12/12 10:52:41;;;;;;;2.58;1.77;;;;;;;;;;5075926;28;20079;-78
2023/12/12 10:55:08;;;;;;;5.22;1.80;;;;;;;;;;5070100;28;20056;-79
2023/12/12 10:57:42;;;;;;;2.65;1.65;;;;;;;;;;5059584;28;20103;-79
2023/12/12 11:00:14;;;;;;;2.53;1.88;;;;;;;;;;5082169;28;20067;-79
2023/12/12 11:02:45;;;;;;;2.42;1.80;;;;;;;;;;5065178;28;20057;-79
2023/12/12 11:05:14;;;;;;;5.28;1.63;;;;;;;;;;5047339;28;20132;-78
2023/12/12 11:07:43;;;;;;;2.65;1.92;;;;;;;;;;5072275;28;20058;-81
2023/12/12 11:10:14;;;;;;;3.33;2.38;;;;;;;;;;5052793;28;20049;-78
2023/12/12 11:12:58;;;;;;;1.85;1.40;;;;;;;;;;5055916;28;20084;-80
2023/12/12 11:15:25;;;;;;;3.22;1.58;;;;;;;;;;5054043;28;20053;-79
2023/12/12 11:17:52;;;;;;;2.45;1.52;;;;;;;;;;5072126;28;20107;-79
2023/12/12 11:20:19;;;;;;;5.43;1.73;;;;;;;;;;5085516;28;20074;-79
2023/12/12 11:22:48;;;;;;;2.45;1.48;;;;;;;;;;5038504;28;20063;-80
2023/12/12 11:25:17;;;;;;;3.63;1.42;;;;;;;;;;5070225;28;20052;-79
2023/12/12 11:27:47;;;;;;;3.13;1.60;;;;;;;;;;5053115;28;20048;-77
2023/12/12 11:30:15;;;;;;;3.28;1.80;;;;;;;;;;5057323;28;20132;-78
2023/12/12 11:32:43;;;;;;;2.65;1.60;;;;;;;;;;5048479;28;20045;-77
2023/12/12 11:35:28;;;;;;;2.53;1.42;;;;;;;;;;5061665;28;20048;-78
2023/12/12 11:38:02;;;;;;;2.38;1.60;;;;;;;;;;5050205;28;20080;-76
2023/12/12 11:40:29;;;;;;;3.10;1.50;;;;;;;;;;5029369;28;20520;-77
2023/12/12 11:43:01;;;;;;;2.70;1.33;;;;;;;;;;5051788;28;20783;-76
2023/12/12 11:45:32;;;;;;;3.17;1.50;;;;;;;;;;5031860;28;20060;-77
2023/12/12 11:48:00;;;;;;;2.80;1.80;;;;;;;;;;5066727;28;20391;-76
2023/12/12 11:50:27;;;;;;;2.28;1.40;;;;;;;;;;5047725;28;20110;-77
2023/12/12 11:52:54;;;;;;;5.05;1.42;;;;;;;;;;5082062;28;20475;-77
2023/12/12 11:55:23;;;;;;;2.40;1.40;;;;;;;;;;5046373;28;20106;-82
2023/12/12 11:57:50;;;;;;;4.30;2.08;;;;;;;;;;5057499;28;20101;-79
2023/12/12 12:00:17;;;;;;;1.60;1.00;;;;;;;;;;5036649;28;20049;-80
2023/12/12 12:02:44;;;;;;;1.92;0.85;;;;;;;;;;5065699;28;20061;-78
2023/12/12 12:05:11;;;;;;;3.15;1.42;;;;;;;;;;5052626;28;21577;-84
2023/12/12 12:07:38;;;;;;;3.95;1.88;;;;;;;;;;5060513;28;20098;-83
2023/12/12 12:10:06;;;;;;;2.33;1.67;;;;;;;;;;5046724;28;20052;-84
2023/12/12 12:12:33;;;;;;;3.60;2.25;;;;;;;;;;5047530;28;20780;-83
2023/12/12 12:15:05;;;;;;;3.80;1.75;;;;;;;;;;5047753;28;20055;-81
2023/12/12 12:17:36;;;;;;;2.50;1.23;;;;;;;;;;5046166;28;20049;-82
2023/12/12 12:20:04;;;;;;;2.92;1.35;;;;;;;;;;5059731;28;20048;-82
2023/12/12 12:22:31;;;;;;;1.95;1.33;;;;;;;;;;5062137;28;20048;-82
2023/12/12 12:24:58;;;;;;;1.52;1.23;;;;;;;;;;5074978;28;20092;-80
2023/12/12 12:27:25;;;;;;;2.85;1.20;;;;;;;;;;5030486;28;20130;-82
2023/12/12 12:30:05;;;;;;;3.92;1.17;;;;;;;;;;5067275;28;20107;-81
2023/12/12 12:32:32;;;;;;;9.65;2.67;;;;;;;;;;5080995;28;20079;-82
2023/12/12 12:35:07;;;;;;;3.35;1.55;;;;;;;;;;5048742;28;20049;-82
2023/12/12 12:37:35;;;;;;;3.65;1.30;;;;;;;;;;5088689;28;20040;-81
2023/12/12 12:40:04;;;;;;;2.45;1.25;;;;;;;;;;5064900;28;20052;-82
2023/12/12 12:42:35;;;;;;;2.10;1.30;;;;;;;;;;5035711;28;20132;-82
2023/12/12 12:45:03;;;;;;;2.63;1.17;;;;;;;;;;5057935;28;20577;-82
2023/12/12 12:47:30;;;;;;;3.55;1.23;;;;;;;;;;5073526;28;20117;-81
2023/12/12 12:49:58;;;;;;;5.45;2.55;;;;;;;;;;5061737;28;20053;-79
2023/12/12 12:52:25;;;;;;;4.18;2.47;;;;;;;;;;5065074;28;20056;-81
2023/12/12 12:54:52;;;;;;;2.85;1.98;;;;;;;;;;5044014;28;20056;-79
2023/12/12 12:57:19;;;;;;;2.58;1.90;;;;;;;;;;5033141;28;20460;-82
2023/12/12 12:59:46;;;;;;;3.50;2.30;;;;;;;;;;5051418;28;20048;-80
2023/12/12 13:02:13;;;;;;;6.00;2.83;;;;;;;;;;5054153;28;20586;-82
2023/12/12 13:04:40;;;;;;;7.40;4.90;;;;;;;;;;5049576;28;20103;-81
2023/12/12 13:07:07;;;;;;;8.98;5.18;;;;;;;;;;5076306;28;20057;-83
2023/12/12 13:09:35;;;;;;;5.65;2.85;;;;;;;;;;5050386;28;20055;-82
2023/12/12 13:12:03;;;;;;;3.55;1.30;;;;;;;;;;5065163;28;20072;-82
2023/12/12 13:14:31;;;;;;;2.85;1.77;;;;;;;;;;5053148;28;20053;-81
2023/12/12 13:16:58;;;;;;;2.53;1.33;;;;;;;;;;5032758;28;20052;-83
2023/12/12 13:19:26;;;;;;;5.90;2.97;;;;;;;;;;5074370;28;20052;-83
2023/12/12 13:21:54;;;;;;;7.43;5.15;;;;;;;;;;5063364;28;20135;-83
2023/12/12 13:24:22;;;;;;;7.88;3.72;;;;;;;;;;5061790;28;20595;-84
2023/12/12 13:26:53;;;;;;;2.85;1.90;;;;;;;;;;5057181;28;20076;-80
2023/12/12 13:29:21;;;;;;;6.75;2.60;;;;;;;;;;5033170;28;20056;-83
2023/12/12 13:31:48;;;;;;;4.95;4.07;;;;;;;;;;5048730;28;20061;-84
2023/12/12 13:34:15;;;;;;;5.22;4.03;;;;;;;;;;5054513;28;20066;-84
2023/12/12 13:36:43;;;;;;;3.97;3.33;;;;;;;;;;5068350;28;20052;-83
2023/12/12 13:39:12;;;;;;;4.18;2.85;;;;;;;;;;5035388;28;20056;-83
2023/12/12 13:41:44;;;;;;;4.38;2.13;;;;;;;;;;5071068;28;20044;-84
2023/12/12 13:44:12;;;;;;;2.75;2.40;;;;;;;;;;5052803;28;20083;-83
2023/12/12 13:46:38;;;;;;;3.42;2.60;;;;;;;;;;5060273;28;20140;-84
2023/12/12 13:49:06;;;;;;;4.00;2.33;;;;;;;;;;5054611;28;20049;-87
2023/12/12 13:51:33;;;;;;;4.97;2.97;;;;;;;;;;5070436;28;20060;-85
2023/12/12 13:54:12;;;;;;;5.95;2.88;;;;;;;;;;5065306;28;20048;-83
2023/12/12 13:56:40;;;;;;;4.28;2.67;;;;;;;;;;5051926;28;20099;-83
2023/12/12 13:59:07;;;;;;;4.07;2.70;;;;;;;;;;5052572;28;20507;-85
2023/12/12 14:01:34;;;;;;;2.35;1.75;;;;;;;;;;5063645;28;20052;-84
2023/12/12 14:04:01;;;;;;;3.40;2.47;;;;;;;;;;5065815;28;20402;-85
2023/12/12 14:06:28;;;;;;;3.13;1.75;;;;;;;;;;5053214;28;20060;-84
2023/12/12 14:08:55;;;;;;;3.05;1.92;;;;;;;;;;5063531;28;20053;-84
2023/12/12 14:11:24;;;;;;;1.88;1.67;;;;;;;;;;5033133;28;20048;-84
2023/12/12 14:13:52;;;;;;;2.65;1.60;;;;;;;;;;5052852;28;20087;-84
2023/12/12 14:16:19;;;;;;;3.28;1.90;;;;;;;;;;5079262;28;20135;-84
2023/12/12 14:18:55;;;;;;;3.92;2.70;;;;;;;;;;5069444;28;20064;-84
2023/12/12 14:21:23;;;;;;;4.88;2.85;;;;;;;;;;5061114;28;20041;-90
2023/12/12 14:23:50;;;;;;;5.20;2.83;;;;;;;;;;5056133;28;20098;-84
2023/12/12 14:26:17;;;;;;;7.30;2.90;;;;;;;;;;5068061;28;20479;-85
2023/12/12 14:28:48;;;;;;;5.63;2.60;;;;;;;;;;5038429;28;20420;-84
2023/12/12 14:31:16;;;;;;;4.93;2.92;;;;;;;;;;5065441;28;20076;-85
2023/12/12 14:33:46;;;;;;;4.13;2.63;;;;;;;;;;5036866;28;20503;-83
2023/12/12 14:36:14;;;;;;;3.25;2.55;;;;;;;;;;5049254;28;20051;-85
2023/12/12 14:38:43;;;;;;;4.72;2.72;;;;;;;;;;5042007;28;20681;-85
2023/12/12 14:41:10;;;;;;;2.75;2.33;;;;;;;;;;5041960;28;20052;-85
2023/12/12 14:43:38;;;;;;;3.47;2.28;;;;;;;;;;5057220;28;20040;-85
2023/12/12 14:46:05;;;;;;;3.45;1.95;;;;;;;;;;5078740;28;20059;-85